sensor_id;sensor_type;location;lat;lon;timestamp;P1;durP1;ratioP1;P2;durP2;ratioP2
41946;SDS011;27638;42.184;24.848;2022-09-06T00:00:11;5.05;;;3.30;;
41946;SDS011;27638;42.184;24.848;2022-09-06T00:02:39;5.90;;;3.25;;
41946;SDS011;27638;42.184;24.848;2022-09-06T00:05:06;8.45;;;3.15;;
41946;SDS011;27638;42.184;24.848;2022-09-06T00:07:32;8.82;;;3.53;;
41946;SDS011;27638;42.184;24.848;2022-09-06T00:09:58;8.80;;;3.55;;
41946;SDS011;27638;42.184;24.848;2022-09-06T00:12:24;8.57;;;3.13;;
41946;SDS011;27638;42.184;24.848;2022-09-06T00:14:49;5.88;;;3.22;;
41946;SDS011;27638;42.184;24.848;2022-09-06T00:17:15;7.10;;;3.50;;
41946;SDS011;27638;42.184;24.848;2022-09-06T00:19:41;6.90;;;3.63;;
41946;SDS011;27638;42.184;24.848;2022-09-06T00:22:06;9.18;;;3.85;;
41946;SDS011;27638;42.184;24.848;2022-09-06T00:24:32;6.57;;;3.38;;
41946;SDS011;27638;42.184;24.848;2022-09-06T00:26:58;6.18;;;3.00;;
41946;SDS011;27638;42.184;24.848;2022-09-06T00:29:23;5.07;;;2.83;;
41946;SDS011;27638;42.184;24.848;2022-09-06T00:31:49;5.68;;;3.03;;
41946;SDS011;27638;42.184;24.848;2022-09-06T00:34:14;8.25;;;3.05;;
41946;SDS011;27638;42.184;24.848;2022-09-06T00:36:40;4.68;;;2.40;;
41946;SDS011;27638;42.184;24.848;2022-09-06T00:39:05;5.00;;;2.95;;
41946;SDS011;27638;42.184;24.848;2022-09-06T00:41:31;3.88;;;2.67;;
41946;SDS011;27638;42.184;24.848;2022-09-06T00:43:56;6.90;;;2.63;;
41946;SDS011;27638;42.184;24.848;2022-09-06T00:46:23;6.93;;;3.30;;
41946;SDS011;27638;42.184;24.848;2022-09-06T00:48:53;8.35;;;2.58;;
41946;SDS011;27638;42.184;24.848;2022-09-06T00:51:21;8.00;;;2.67;;
41946;SDS011;27638;42.184;24.848;2022-09-06T00:53:50;7.78;;;2.75;;
41946;SDS011;27638;42.184;24.848;2022-09-06T00:56:16;20.95;;;3.70;;
41946;SDS011;27638;42.184;24.848;2022-09-06T00:58:41;7.82;;;3.45;;
41946;SDS011;27638;42.184;24.848;2022-09-06T01:01:08;7.15;;;3.55;;
41946;SDS011;27638;42.184;24.848;2022-09-06T01:03:33;9.70;;;3.95;;
41946;SDS011;27638;42.184;24.848;2022-09-06T01:11:47;7.70;;;3.50;;
41946;SDS011;27638;42.184;24.848;2022-09-06T01:14:48;8.45;;;3.90;;
41946;SDS011;27638;42.184;24.848;2022-09-06T01:28:48;10.13;;;3.70;;
41946;SDS011;27638;42.184;24.848;2022-09-06T01:39:04;8.10;;;3.85;;
41946;SDS011;27638;42.184;24.848;2022-09-06T01:41:30;7.70;;;3.90;;
41946;SDS011;27638;42.184;24.848;2022-09-06T01:43:57;8.35;;;3.80;;
41946;SDS011;27638;42.184;24.848;2022-09-06T01:49:17;7.75;;;4.03;;
41946;SDS011;27638;42.184;24.848;2022-09-06T01:55:06;4.85;;;3.47;;
41946;SDS011;27638;42.184;24.848;2022-09-06T02:07:48;8.90;;;4.13;;
41946;SDS011;27638;42.184;24.848;2022-09-06T02:10:24;6.47;;;3.78;;
41946;SDS011;27638;42.184;24.848;2022-09-06T02:13:01;5.95;;;3.60;;
41946;SDS011;27638;42.184;24.848;2022-09-06T02:15:32;8.65;;;3.88;;
41946;SDS011;27638;42.184;24.848;2022-09-06T02:18:02;5.18;;;3.55;;
41946;SDS011;27638;42.184;24.848;2022-09-06T02:20:32;8.88;;;4.05;;
41946;SDS011;27638;42.184;24.848;2022-09-06T02:23:03;8.35;;;4.63;;
41946;SDS011;27638;42.184;24.848;2022-09-06T02:25:39;7.85;;;3.70;;
41946;SDS011;27638;42.184;24.848;2022-09-06T02:28:09;7.88;;;3.80;;
41946;SDS011;27638;42.184;24.848;2022-09-06T02:30:35;8.07;;;3.92;;
41946;SDS011;27638;42.184;24.848;2022-09-06T02:33:07;5.15;;;3.70;;
41946;SDS011;27638;42.184;24.848;2022-09-06T02:35:45;5.15;;;3.45;;
41946;SDS011;27638;42.184;24.848;2022-09-06T02:38:13;9.13;;;3.72;;
41946;SDS011;27638;42.184;24.848;2022-09-06T02:40:39;11.23;;;4.18;;
41946;SDS011;27638;42.184;24.848;2022-09-06T02:43:07;17.27;;;4.22;;
41946;SDS011;27638;42.184;24.848;2022-09-06T02:45:32;10.52;;;4.25;;
41946;SDS011;27638;42.184;24.848;2022-09-06T02:47:58;6.88;;;3.70;;
41946;SDS011;27638;42.184;24.848;2022-09-06T02:50:23;5.90;;;3.22;;
41946;SDS011;27638;42.184;24.848;2022-09-06T02:55:27;8.18;;;3.47;;
41946;SDS011;27638;42.184;24.848;2022-09-06T02:57:52;8.35;;;3.70;;
41946;SDS011;27638;42.184;24.848;2022-09-06T03:00:18;6.60;;;4.10;;
41946;SDS011;27638;42.184;24.848;2022-09-06T03:02:43;8.38;;;3.92;;
41946;SDS011;27638;42.184;24.848;2022-09-06T03:05:09;9.90;;;4.32;;
41946;SDS011;27638;42.184;24.848;2022-09-06T03:07:35;10.52;;;4.38;;
41946;SDS011;27638;42.184;24.848;2022-09-06T03:10:00;9.57;;;4.10;;
41946;SDS011;27638;42.184;24.848;2022-09-06T03:12:26;9.18;;;3.67;;
41946;SDS011;27638;42.184;24.848;2022-09-06T03:14:51;7.20;;;3.70;;
41946;SDS011;27638;42.184;24.848;2022-09-06T03:17:17;9.30;;;3.97;;
41946;SDS011;27638;42.184;24.848;2022-09-06T03:19:42;12.15;;;4.53;;
41946;SDS011;27638;42.184;24.848;2022-09-06T03:22:08;8.13;;;4.10;;
41946;SDS011;27638;42.184;24.848;2022-09-06T03:24:33;6.95;;;3.88;;
41946;SDS011;27638;42.184;24.848;2022-09-06T03:26:58;8.00;;;3.45;;
41946;SDS011;27638;42.184;24.848;2022-09-06T03:29:24;6.32;;;3.88;;
41946;SDS011;27638;42.184;24.848;2022-09-06T03:31:49;9.43;;;4.60;;
41946;SDS011;27638;42.184;24.848;2022-09-06T03:34:15;8.90;;;4.07;;
41946;SDS011;27638;42.184;24.848;2022-09-06T03:36:40;6.53;;;4.50;;
41946;SDS011;27638;42.184;24.848;2022-09-06T03:39:06;8.90;;;4.25;;
41946;SDS011;27638;42.184;24.848;2022-09-06T03:41:31;9.65;;;4.88;;
41946;SDS011;27638;42.184;24.848;2022-09-06T03:43:57;14.95;;;4.15;;
41946;SDS011;27638;42.184;24.848;2022-09-06T03:46:22;11.43;;;4.45;;
41946;SDS011;27638;42.184;24.848;2022-09-06T03:48:48;7.90;;;4.15;;
41946;SDS011;27638;42.184;24.848;2022-09-06T03:51:14;11.10;;;4.57;;
41946;SDS011;27638;42.184;24.848;2022-09-06T03:53:39;10.07;;;4.53;;
41946;SDS011;27638;42.184;24.848;2022-09-06T03:56:05;9.88;;;4.22;;
41946;SDS011;27638;42.184;24.848;2022-09-06T03:58:31;10.07;;;4.50;;
41946;SDS011;27638;42.184;24.848;2022-09-06T04:01:00;12.02;;;4.45;;
41946;SDS011;27638;42.184;24.848;2022-09-06T04:03:30;14.35;;;5.25;;
41946;SDS011;27638;42.184;24.848;2022-09-06T04:05:57;12.38;;;4.80;;
41946;SDS011;27638;42.184;24.848;2022-09-06T04:08:22;10.68;;;5.68;;
41946;SDS011;27638;42.184;24.848;2022-09-06T04:10:48;14.15;;;6.88;;
41946;SDS011;27638;42.184;24.848;2022-09-06T04:13:16;15.10;;;5.75;;
41946;SDS011;27638;42.184;24.848;2022-09-06T04:15:44;18.20;;;5.72;;
41946;SDS011;27638;42.184;24.848;2022-09-06T04:18:10;18.33;;;5.85;;
41946;SDS011;27638;42.184;24.848;2022-09-06T04:20:36;18.05;;;5.75;;
41946;SDS011;27638;42.184;24.848;2022-09-06T04:23:01;14.50;;;4.57;;
41946;SDS011;27638;42.184;24.848;2022-09-06T04:25:28;13.60;;;5.25;;
41946;SDS011;27638;42.184;24.848;2022-09-06T04:27:53;16.08;;;5.45;;
41946;SDS011;27638;42.184;24.848;2022-09-06T04:30:19;10.50;;;4.57;;
41946;SDS011;27638;42.184;24.848;2022-09-06T04:32:44;12.77;;;4.63;;
41946;SDS011;27638;42.184;24.848;2022-09-06T04:35:10;16.45;;;5.38;;
41946;SDS011;27638;42.184;24.848;2022-09-06T04:37:35;10.80;;;4.28;;
41946;SDS011;27638;42.184;24.848;2022-09-06T04:40:00;7.93;;;4.97;;
41946;SDS011;27638;42.184;24.848;2022-09-06T04:42:26;10.82;;;4.88;;
41946;SDS011;27638;42.184;24.848;2022-09-06T04:44:52;10.68;;;5.47;;
41946;SDS011;27638;42.184;24.848;2022-09-06T04:47:17;12.27;;;5.03;;
41946;SDS011;27638;42.184;24.848;2022-09-06T04:49:43;10.57;;;5.05;;
41946;SDS011;27638;42.184;24.848;2022-09-06T04:52:09;8.10;;;5.05;;
41946;SDS011;27638;42.184;24.848;2022-09-06T04:54:35;12.90;;;5.28;;
41946;SDS011;27638;42.184;24.848;2022-09-06T04:57:01;23.55;;;6.38;;
41946;SDS011;27638;42.184;24.848;2022-09-06T04:59:26;12.68;;;5.63;;
41946;SDS011;27638;42.184;24.848;2022-09-06T05:01:52;13.60;;;5.53;;
41946;SDS011;27638;42.184;24.848;2022-09-06T05:04:17;15.07;;;5.20;;
41946;SDS011;27638;42.184;24.848;2022-09-06T05:06:43;10.27;;;5.07;;
41946;SDS011;27638;42.184;24.848;2022-09-06T05:09:09;12.48;;;4.95;;
41946;SDS011;27638;42.184;24.848;2022-09-06T05:11:35;12.60;;;5.70;;
41946;SDS011;27638;42.184;24.848;2022-09-06T05:14:00;13.50;;;5.30;;
41946;SDS011;27638;42.184;24.848;2022-09-06T05:16:26;11.35;;;5.38;;
41946;SDS011;27638;42.184;24.848;2022-09-06T05:18:51;10.95;;;6.07;;
41946;SDS011;27638;42.184;24.848;2022-09-06T05:21:17;10.27;;;5.15;;
41946;SDS011;27638;42.184;24.848;2022-09-06T05:23:42;11.52;;;5.32;;
41946;SDS011;27638;42.184;24.848;2022-09-06T05:26:08;9.07;;;5.63;;
41946;SDS011;27638;42.184;24.848;2022-09-06T05:28:33;8.90;;;5.38;;
41946;SDS011;27638;42.184;24.848;2022-09-06T05:31:06;13.75;;;6.03;;
41946;SDS011;27638;42.184;24.848;2022-09-06T05:33:31;12.57;;;6.70;;
41946;SDS011;27638;42.184;24.848;2022-09-06T05:35:57;13.10;;;6.40;;
41946;SDS011;27638;42.184;24.848;2022-09-06T05:38:22;13.82;;;6.25;;
41946;SDS011;27638;42.184;24.848;2022-09-06T05:40:49;12.77;;;6.40;;
41946;SDS011;27638;42.184;24.848;2022-09-06T05:43:14;10.63;;;6.10;;
41946;SDS011;27638;42.184;24.848;2022-09-06T05:45:40;11.48;;;6.43;;
41946;SDS011;27638;42.184;24.848;2022-09-06T05:48:05;12.60;;;6.30;;
41946;SDS011;27638;42.184;24.848;2022-09-06T05:50:32;12.73;;;6.10;;
41946;SDS011;27638;42.184;24.848;2022-09-06T05:52:58;14.10;;;6.63;;
41946;SDS011;27638;42.184;24.848;2022-09-06T05:55:24;12.60;;;6.13;;
41946;SDS011;27638;42.184;24.848;2022-09-06T05:57:49;13.05;;;6.25;;
41946;SDS011;27638;42.184;24.848;2022-09-06T06:00:15;10.48;;;5.95;;
41946;SDS011;27638;42.184;24.848;2022-09-06T06:02:40;10.43;;;5.93;;
41946;SDS011;27638;42.184;24.848;2022-09-06T06:05:06;9.10;;;4.85;;
41946;SDS011;27638;42.184;24.848;2022-09-06T06:07:32;15.25;;;5.75;;
41946;SDS011;27638;42.184;24.848;2022-09-06T06:09:57;11.57;;;6.05;;
41946;SDS011;27638;42.184;24.848;2022-09-06T06:12:23;10.82;;;6.30;;
41946;SDS011;27638;42.184;24.848;2022-09-06T06:14:48;12.88;;;5.25;;
41946;SDS011;27638;42.184;24.848;2022-09-06T06:17:13;14.88;;;6.55;;
41946;SDS011;27638;42.184;24.848;2022-09-06T06:19:39;13.80;;;6.60;;
41946;SDS011;27638;42.184;24.848;2022-09-06T06:22:04;11.27;;;5.88;;
41946;SDS011;27638;42.184;24.848;2022-09-06T06:24:30;8.35;;;5.80;;
41946;SDS011;27638;42.184;24.848;2022-09-06T06:26:55;10.55;;;6.25;;
41946;SDS011;27638;42.184;24.848;2022-09-06T06:29:21;9.68;;;5.50;;
41946;SDS011;27638;42.184;24.848;2022-09-06T06:31:46;15.10;;;5.90;;
41946;SDS011;27638;42.184;24.848;2022-09-06T06:34:11;12.00;;;5.47;;
41946;SDS011;27638;42.184;24.848;2022-09-06T06:36:37;9.05;;;5.43;;
41946;SDS011;27638;42.184;24.848;2022-09-06T06:39:03;9.23;;;4.95;;
41946;SDS011;27638;42.184;24.848;2022-09-06T06:41:31;7.63;;;5.38;;
41946;SDS011;27638;42.184;24.848;2022-09-06T06:43:57;9.52;;;4.85;;
41946;SDS011;27638;42.184;24.848;2022-09-06T06:46:25;8.13;;;5.18;;
41946;SDS011;27638;42.184;24.848;2022-09-06T06:48:53;7.43;;;4.85;;
41946;SDS011;27638;42.184;24.848;2022-09-06T06:51:19;10.52;;;4.63;;
41946;SDS011;27638;42.184;24.848;2022-09-06T06:53:46;10.55;;;5.05;;
41946;SDS011;27638;42.184;24.848;2022-09-06T06:58:40;8.93;;;4.88;;
41946;SDS011;27638;42.184;24.848;2022-09-06T07:01:06;8.00;;;4.22;;
41946;SDS011;27638;42.184;24.848;2022-09-06T07:03:33;9.68;;;4.50;;
41946;SDS011;27638;42.184;24.848;2022-09-06T07:06:00;9.35;;;4.85;;
41946;SDS011;27638;42.184;24.848;2022-09-06T07:08:25;5.75;;;4.45;;
41946;SDS011;27638;42.184;24.848;2022-09-06T07:10:51;9.77;;;4.40;;
41946;SDS011;27638;42.184;24.848;2022-09-06T07:13:16;7.90;;;4.53;;
41946;SDS011;27638;42.184;24.848;2022-09-06T07:15:43;10.35;;;4.00;;
41946;SDS011;27638;42.184;24.848;2022-09-06T07:18:08;16.48;;;4.30;;
41946;SDS011;27638;42.184;24.848;2022-09-06T07:20:34;5.80;;;3.83;;
41946;SDS011;27638;42.184;24.848;2022-09-06T07:23:03;7.18;;;3.95;;
41946;SDS011;27638;42.184;24.848;2022-09-06T07:25:32;6.75;;;4.00;;
41946;SDS011;27638;42.184;24.848;2022-09-06T07:27:59;12.20;;;4.38;;
41946;SDS011;27638;42.184;24.848;2022-09-06T07:30:26;6.95;;;3.85;;
41946;SDS011;27638;42.184;24.848;2022-09-06T07:32:52;6.85;;;3.92;;
41946;SDS011;27638;42.184;24.848;2022-09-06T07:35:18;9.20;;;3.85;;
41946;SDS011;27638;42.184;24.848;2022-09-06T07:37:57;9.50;;;4.10;;
41946;SDS011;27638;42.184;24.848;2022-09-06T07:40:24;9.88;;;5.10;;
41946;SDS011;27638;42.184;24.848;2022-09-06T07:42:52;7.32;;;4.40;;
41946;SDS011;27638;42.184;24.848;2022-09-06T07:45:20;11.00;;;4.43;;
41946;SDS011;27638;42.184;24.848;2022-09-06T07:47:51;10.00;;;4.63;;
41946;SDS011;27638;42.184;24.848;2022-09-06T07:50:23;10.27;;;4.57;;
41946;SDS011;27638;42.184;24.848;2022-09-06T07:52:49;11.48;;;4.10;;
41946;SDS011;27638;42.184;24.848;2022-09-06T07:55:14;10.07;;;5.35;;
41946;SDS011;27638;42.184;24.848;2022-09-06T07:57:40;12.85;;;3.97;;
41946;SDS011;27638;42.184;24.848;2022-09-06T08:00:06;12.18;;;4.15;;
41946;SDS011;27638;42.184;24.848;2022-09-06T08:02:32;8.18;;;3.80;;
41946;SDS011;27638;42.184;24.848;2022-09-06T08:04:58;8.73;;;3.67;;
41946;SDS011;27638;42.184;24.848;2022-09-06T08:07:23;11.13;;;3.97;;
41946;SDS011;27638;42.184;24.848;2022-09-06T08:09:49;6.45;;;3.55;;
41946;SDS011;27638;42.184;24.848;2022-09-06T08:12:17;6.93;;;3.03;;
41946;SDS011;27638;42.184;24.848;2022-09-06T08:14:43;5.60;;;3.45;;
41946;SDS011;27638;42.184;24.848;2022-09-06T08:17:08;5.60;;;3.03;;
41946;SDS011;27638;42.184;24.848;2022-09-06T08:19:33;4.65;;;3.10;;
41946;SDS011;27638;42.184;24.848;2022-09-06T08:21:59;4.25;;;2.83;;
41946;SDS011;27638;42.184;24.848;2022-09-06T08:24:25;6.07;;;3.05;;
41946;SDS011;27638;42.184;24.848;2022-09-06T08:26:50;5.75;;;3.10;;
41946;SDS011;27638;42.184;24.848;2022-09-06T08:29:16;7.97;;;3.40;;
41946;SDS011;27638;42.184;24.848;2022-09-06T08:31:43;9.25;;;3.88;;
41946;SDS011;27638;42.184;24.848;2022-09-06T08:34:09;9.32;;;4.30;;
41946;SDS011;27638;42.184;24.848;2022-09-06T08:36:36;5.95;;;3.72;;
41946;SDS011;27638;42.184;24.848;2022-09-06T08:39:03;9.57;;;3.80;;
41946;SDS011;27638;42.184;24.848;2022-09-06T08:41:31;6.70;;;3.78;;
41946;SDS011;27638;42.184;24.848;2022-09-06T08:46:31;6.15;;;4.05;;
41946;SDS011;27638;42.184;24.848;2022-09-06T08:49:01;8.88;;;4.03;;
41946;SDS011;27638;42.184;24.848;2022-09-06T08:57:00;8.38;;;3.60;;
41946;SDS011;27638;42.184;24.848;2022-09-06T08:59:38;13.70;;;3.92;;
41946;SDS011;27638;42.184;24.848;2022-09-06T09:02:16;9.68;;;3.55;;
41946;SDS011;27638;42.184;24.848;2022-09-06T09:04:46;7.97;;;4.22;;
41946;SDS011;27638;42.184;24.848;2022-09-06T09:07:30;6.45;;;3.58;;
41946;SDS011;27638;42.184;24.848;2022-09-06T09:10:04;9.10;;;3.30;;
41946;SDS011;27638;42.184;24.848;2022-09-06T09:12:37;9.27;;;3.65;;
41946;SDS011;27638;42.184;24.848;2022-09-06T09:15:09;6.00;;;3.63;;
41946;SDS011;27638;42.184;24.848;2022-09-06T09:17:38;7.78;;;3.70;;
41946;SDS011;27638;42.184;24.848;2022-09-06T09:20:04;8.98;;;3.80;;
41946;SDS011;27638;42.184;24.848;2022-09-06T09:22:32;7.28;;;3.85;;
41946;SDS011;27638;42.184;24.848;2022-09-06T09:24:59;7.00;;;2.92;;
41946;SDS011;27638;42.184;24.848;2022-09-06T09:27:26;4.88;;;2.83;;
41946;SDS011;27638;42.184;24.848;2022-09-06T09:32:28;7.45;;;3.10;;
41946;SDS011;27638;42.184;24.848;2022-09-06T09:37:43;7.50;;;3.35;;
41946;SDS011;27638;42.184;24.848;2022-09-06T09:40:12;6.55;;;4.07;;
41946;SDS011;27638;42.184;24.848;2022-09-06T09:42:41;9.23;;;3.35;;
41946;SDS011;27638;42.184;24.848;2022-09-06T09:47:54;5.15;;;3.30;;
41946;SDS011;27638;42.184;24.848;2022-09-06T09:52:49;7.40;;;3.58;;
41946;SDS011;27638;42.184;24.848;2022-09-06T09:55:15;9.13;;;2.85;;
41946;SDS011;27638;42.184;24.848;2022-09-06T09:57:45;4.85;;;2.88;;
41946;SDS011;27638;42.184;24.848;2022-09-06T10:00:13;10.00;;;3.15;;
41946;SDS011;27638;42.184;24.848;2022-09-06T10:02:41;6.68;;;2.90;;
41946;SDS011;27638;42.184;24.848;2022-09-06T10:05:08;3.17;;;2.70;;
41946;SDS011;27638;42.184;24.848;2022-09-06T10:10:21;4.07;;;2.97;;
41946;SDS011;27638;42.184;24.848;2022-09-06T10:15:38;3.30;;;2.80;;
41946;SDS011;27638;42.184;24.848;2022-09-06T10:18:05;4.07;;;3.22;;
41946;SDS011;27638;42.184;24.848;2022-09-06T10:20:41;6.32;;;2.72;;
41946;SDS011;27638;42.184;24.848;2022-09-06T10:23:17;6.38;;;3.10;;
41946;SDS011;27638;42.184;24.848;2022-09-06T10:25:56;9.13;;;2.72;;
41946;SDS011;27638;42.184;24.848;2022-09-06T10:28:33;4.47;;;2.67;;
41946;SDS011;27638;42.184;24.848;2022-09-06T10:36:39;5.03;;;2.83;;
41946;SDS011;27638;42.184;24.848;2022-09-06T10:39:29;4.10;;;2.67;;
41946;SDS011;27638;42.184;24.848;2022-09-06T10:56:10;6.78;;;2.55;;
41946;SDS011;27638;42.184;24.848;2022-09-06T10:58:49;5.30;;;2.60;;
41946;SDS011;27638;42.184;24.848;2022-09-06T11:04:13;2.88;;;2.03;;
41946;SDS011;27638;42.184;24.848;2022-09-06T11:06:47;6.90;;;2.22;;
41946;SDS011;27638;42.184;24.848;2022-09-06T11:09:22;5.43;;;2.20;;
41946;SDS011;27638;42.184;24.848;2022-09-06T11:12:14;3.15;;;1.90;;
41946;SDS011;27638;42.184;24.848;2022-09-06T11:14:51;2.22;;;1.98;;
41946;SDS011;27638;42.184;24.848;2022-09-06T11:20:19;2.88;;;1.90;;
41946;SDS011;27638;42.184;24.848;2022-09-06T11:27:50;4.40;;;2.05;;
41946;SDS011;27638;42.184;24.848;2022-09-06T11:30:18;3.85;;;1.98;;
41946;SDS011;27638;42.184;24.848;2022-09-06T11:32:45;2.55;;;1.85;;
41946;SDS011;27638;42.184;24.848;2022-09-06T11:35:24;4.05;;;2.03;;
41946;SDS011;27638;42.184;24.848;2022-09-06T11:40:35;6.40;;;2.00;;
41946;SDS011;27638;42.184;24.848;2022-09-06T11:53:33;3.58;;;2.22;;
41946;SDS011;27638;42.184;24.848;2022-09-06T11:56:34;2.83;;;2.05;;
41946;SDS011;27638;42.184;24.848;2022-09-06T12:02:01;4.20;;;2.38;;
41946;SDS011;27638;42.184;24.848;2022-09-06T12:07:28;3.80;;;2.15;;
41946;SDS011;27638;42.184;24.848;2022-09-06T12:09:56;3.25;;;2.10;;
41946;SDS011;27638;42.184;24.848;2022-09-06T12:17:53;5.07;;;2.22;;
41946;SDS011;27638;42.184;24.848;2022-09-06T12:26:09;2.67;;;2.17;;
41946;SDS011;27638;42.184;24.848;2022-09-06T12:28:49;2.45;;;2.20;;
41946;SDS011;27638;42.184;24.848;2022-09-06T12:31:23;5.30;;;2.00;;
41946;SDS011;27638;42.184;24.848;2022-09-06T12:33:55;7.13;;;2.55;;
41946;SDS011;27638;42.184;24.848;2022-09-06T12:36:26;5.70;;;2.45;;
41946;SDS011;27638;42.184;24.848;2022-09-06T12:38:59;4.68;;;2.20;;
41946;SDS011;27638;42.184;24.848;2022-09-06T12:41:29;3.28;;;2.45;;
41946;SDS011;27638;42.184;24.848;2022-09-06T12:44:00;7.10;;;2.30;;
41946;SDS011;27638;42.184;24.848;2022-09-06T12:46:29;2.60;;;2.20;;
41946;SDS011;27638;42.184;24.848;2022-09-06T12:49:06;4.57;;;2.28;;
41946;SDS011;27638;42.184;24.848;2022-09-06T12:51:34;3.30;;;2.22;;
41946;SDS011;27638;42.184;24.848;2022-09-06T12:54:03;6.88;;;2.58;;
41946;SDS011;27638;42.184;24.848;2022-09-06T12:56:40;3.78;;;2.38;;
41946;SDS011;27638;42.184;24.848;2022-09-06T12:59:13;5.82;;;2.17;;
41946;SDS011;27638;42.184;24.848;2022-09-06T13:04:48;4.45;;;2.13;;
41946;SDS011;27638;42.184;24.848;2022-09-06T13:07:19;4.22;;;2.30;;
41946;SDS011;27638;42.184;24.848;2022-09-06T13:09:48;6.15;;;2.20;;
41946;SDS011;27638;42.184;24.848;2022-09-06T13:14:56;4.95;;;2.47;;
41946;SDS011;27638;42.184;24.848;2022-09-06T13:17:28;3.60;;;2.42;;
41946;SDS011;27638;42.184;24.848;2022-09-06T13:19:54;6.70;;;2.47;;
41946;SDS011;27638;42.184;24.848;2022-09-06T13:22:38;4.07;;;2.42;;
41946;SDS011;27638;42.184;24.848;2022-09-06T13:25:13;3.50;;;2.30;;
41946;SDS011;27638;42.184;24.848;2022-09-06T13:27:46;4.35;;;2.30;;
41946;SDS011;27638;42.184;24.848;2022-09-06T13:30:33;4.40;;;2.50;;
41946;SDS011;27638;42.184;24.848;2022-09-06T13:33:06;6.53;;;2.25;;
41946;SDS011;27638;42.184;24.848;2022-09-06T13:35:44;6.15;;;2.33;;
41946;SDS011;27638;42.184;24.848;2022-09-06T13:38:33;4.75;;;2.45;;
41946;SDS011;27638;42.184;24.848;2022-09-06T13:44:00;5.13;;;2.10;;
41946;SDS011;27638;42.184;24.848;2022-09-06T13:46:27;2.97;;;2.33;;
41946;SDS011;27638;42.184;24.848;2022-09-06T13:48:53;6.55;;;2.72;;
41946;SDS011;27638;42.184;24.848;2022-09-06T13:51:19;3.95;;;2.50;;
41946;SDS011;27638;42.184;24.848;2022-09-06T13:53:44;4.45;;;2.70;;
41946;SDS011;27638;42.184;24.848;2022-09-06T13:56:10;4.30;;;2.42;;
41946;SDS011;27638;42.184;24.848;2022-09-06T13:58:36;5.20;;;2.78;;
41946;SDS011;27638;42.184;24.848;2022-09-06T14:01:02;4.35;;;2.50;;
41946;SDS011;27638;42.184;24.848;2022-09-06T14:03:32;3.83;;;2.80;;
41946;SDS011;27638;42.184;24.848;2022-09-06T14:05:58;3.88;;;2.50;;
41946;SDS011;27638;42.184;24.848;2022-09-06T14:08:24;7.50;;;3.20;;
41946;SDS011;27638;42.184;24.848;2022-09-06T14:10:51;3.72;;;2.67;;
41946;SDS011;27638;42.184;24.848;2022-09-06T14:13:17;3.25;;;2.72;;
41946;SDS011;27638;42.184;24.848;2022-09-06T14:15:44;5.63;;;2.55;;
41946;SDS011;27638;42.184;24.848;2022-09-06T14:18:11;5.53;;;2.88;;
41946;SDS011;27638;42.184;24.848;2022-09-06T14:20:37;5.65;;;3.00;;
41946;SDS011;27638;42.184;24.848;2022-09-06T14:23:02;4.32;;;3.10;;
41946;SDS011;27638;42.184;24.848;2022-09-06T14:25:29;5.22;;;3.03;;
41946;SDS011;27638;42.184;24.848;2022-09-06T14:27:54;4.65;;;2.58;;
41946;SDS011;27638;42.184;24.848;2022-09-06T14:30:20;6.05;;;2.78;;
41946;SDS011;27638;42.184;24.848;2022-09-06T14:32:46;5.70;;;2.63;;
41946;SDS011;27638;42.184;24.848;2022-09-06T14:35:11;6.43;;;2.80;;
41946;SDS011;27638;42.184;24.848;2022-09-06T14:37:37;4.30;;;2.45;;
41946;SDS011;27638;42.184;24.848;2022-09-06T14:40:02;5.38;;;2.95;;
41946;SDS011;27638;42.184;24.848;2022-09-06T14:42:29;5.93;;;2.60;;
41946;SDS011;27638;42.184;24.848;2022-09-06T14:44:54;5.20;;;2.72;;
41946;SDS011;27638;42.184;24.848;2022-09-06T14:47:20;6.18;;;2.80;;
41946;SDS011;27638;42.184;24.848;2022-09-06T14:49:46;4.43;;;2.70;;
41946;SDS011;27638;42.184;24.848;2022-09-06T14:52:11;5.13;;;3.47;;
41946;SDS011;27638;42.184;24.848;2022-09-06T14:54:37;6.38;;;2.85;;
41946;SDS011;27638;42.184;24.848;2022-09-06T14:57:02;5.15;;;3.13;;
41946;SDS011;27638;42.184;24.848;2022-09-06T14:59:28;4.72;;;3.15;;
41946;SDS011;27638;42.184;24.848;2022-09-06T15:01:53;7.53;;;2.70;;
41946;SDS011;27638;42.184;24.848;2022-09-06T15:04:19;3.53;;;2.80;;
41946;SDS011;27638;42.184;24.848;2022-09-06T15:06:45;5.82;;;2.92;;
41946;SDS011;27638;42.184;24.848;2022-09-06T15:09:12;6.47;;;2.90;;
41946;SDS011;27638;42.184;24.848;2022-09-06T15:11:42;9.07;;;3.08;;
41946;SDS011;27638;42.184;24.848;2022-09-06T15:14:13;7.18;;;3.35;;
41946;SDS011;27638;42.184;24.848;2022-09-06T15:16:42;6.73;;;3.00;;
41946;SDS011;27638;42.184;24.848;2022-09-06T15:19:08;4.25;;;3.30;;
41946;SDS011;27638;42.184;24.848;2022-09-06T15:21:34;8.18;;;2.88;;
41946;SDS011;27638;42.184;24.848;2022-09-06T15:24:00;5.45;;;3.20;;
41946;SDS011;27638;42.184;24.848;2022-09-06T15:26:26;7.28;;;3.08;;
41946;SDS011;27638;42.184;24.848;2022-09-06T15:28:52;3.90;;;3.20;;
41946;SDS011;27638;42.184;24.848;2022-09-06T15:31:18;4.78;;;3.35;;
41946;SDS011;27638;42.184;24.848;2022-09-06T15:33:44;5.25;;;3.28;;
41946;SDS011;27638;42.184;24.848;2022-09-06T15:36:12;4.38;;;3.17;;
41946;SDS011;27638;42.184;24.848;2022-09-06T15:38:42;4.40;;;3.17;;
41946;SDS011;27638;42.184;24.848;2022-09-06T15:43:40;4.85;;;2.92;;
41946;SDS011;27638;42.184;24.848;2022-09-06T15:46:11;5.25;;;2.90;;
41946;SDS011;27638;42.184;24.848;2022-09-06T15:48:45;6.97;;;3.67;;
41946;SDS011;27638;42.184;24.848;2022-09-06T15:51:14;3.90;;;3.22;;
41946;SDS011;27638;42.184;24.848;2022-09-06T15:53:41;5.45;;;3.25;;
41946;SDS011;27638;42.184;24.848;2022-09-06T15:56:08;4.57;;;3.05;;
41946;SDS011;27638;42.184;24.848;2022-09-06T15:58:36;4.13;;;2.70;;
41946;SDS011;27638;42.184;24.848;2022-09-06T16:03:36;3.40;;;2.78;;
41946;SDS011;27638;42.184;24.848;2022-09-06T16:06:17;4.90;;;3.20;;
41946;SDS011;27638;42.184;24.848;2022-09-06T16:08:45;4.72;;;3.03;;
41946;SDS011;27638;42.184;24.848;2022-09-06T16:11:13;3.22;;;2.80;;
41946;SDS011;27638;42.184;24.848;2022-09-06T16:13:40;3.30;;;2.95;;
41946;SDS011;27638;42.184;24.848;2022-09-06T16:16:07;6.05;;;3.60;;
41946;SDS011;27638;42.184;24.848;2022-09-06T16:18:39;6.13;;;3.05;;
41946;SDS011;27638;42.184;24.848;2022-09-06T16:21:10;5.65;;;3.00;;
41946;SDS011;27638;42.184;24.848;2022-09-06T16:23:47;3.72;;;2.70;;
41946;SDS011;27638;42.184;24.848;2022-09-06T16:26:17;5.05;;;2.88;;
41946;SDS011;27638;42.184;24.848;2022-09-06T16:28:43;5.13;;;3.20;;
41946;SDS011;27638;42.184;24.848;2022-09-06T16:31:09;8.48;;;3.45;;
41946;SDS011;27638;42.184;24.848;2022-09-06T16:33:36;5.47;;;3.08;;
41946;SDS011;27638;42.184;24.848;2022-09-06T16:36:08;4.95;;;3.38;;
41946;SDS011;27638;42.184;24.848;2022-09-06T16:38:34;5.45;;;3.78;;
41946;SDS011;27638;42.184;24.848;2022-09-06T16:41:06;8.05;;;3.35;;
41946;SDS011;27638;42.184;24.848;2022-09-06T16:43:34;6.15;;;3.83;;
41946;SDS011;27638;42.184;24.848;2022-09-06T16:46:00;8.68;;;3.95;;
41946;SDS011;27638;42.184;24.848;2022-09-06T16:48:27;5.30;;;3.40;;
41946;SDS011;27638;42.184;24.848;2022-09-06T16:50:53;6.63;;;3.80;;
41946;SDS011;27638;42.184;24.848;2022-09-06T16:53:19;9.30;;;3.42;;
41946;SDS011;27638;42.184;24.848;2022-09-06T16:55:45;6.60;;;3.83;;
41946;SDS011;27638;42.184;24.848;2022-09-06T16:58:11;4.18;;;3.03;;
41946;SDS011;27638;42.184;24.848;2022-09-06T17:00:40;6.40;;;3.60;;